Aviation Digital Data Service (ADDS)

Output produced by METARs form (0636 UTC 27 March 2017)
found at http://www.aviationweather.gov/adds/metars/
 
TAF TFFR 270500Z 2706/2806 08003KT 9999 SCT028 
     PROB40 
     TEMPO 2706/2806 3000 SHRA SCT018TCU 
     BECMG 2711/2715 14014KT